Time;durP1;ratioP1;P1;durP2;ratioP2;P2;SDS_P1;SDS_P2;PMS_P1;PMS_P2;Temp;Humidity;BMP_temperature;BMP_pressure;BME280_temperature;BME280_humidity;BME280_pressure;Samples;Min_cycle;Max_cycle;Signal;HPM_P1;HPM_P2
2022/12/22 03:26:23;;;;;;;2.40;1.53;;;12.70;99.90;;;;;;4981392;28;20447;-80
2022/12/22 03:28:48;;;;;;;2.37;1.50;;;12.70;99.90;;;;;;4987515;28;20432;-78
2022/12/22 03:31:14;;;;;;;2.10;1.23;;;12.70;99.90;;;;;;4986196;28;20185;-82
2022/12/22 03:33:40;;;;;;;3.20;1.70;;;12.80;99.90;;;;;;4972301;28;20201;-78
2022/12/22 03:36:06;;;;;;;1.80;1.50;;;12.70;99.90;;;;;;4985567;28;20657;-78
2022/12/22 03:38:32;;;;;;;4.63;1.77;;;12.70;99.90;;;;;;4985210;28;20314;-77
2022/12/22 03:40:58;;;;;;;2.80;1.70;;;12.70;99.90;;;;;;4991343;28;20995;-77
2022/12/22 03:48:39;;;;;;;3.00;1.50;;;12.80;99.90;;;;;;4988686;28;20467;-78
2022/12/22 03:51:06;;;;;;;3.10;1.20;;;12.70;99.90;;;;;;4983444;28;20444;-78
2022/12/22 03:53:31;;;;;;;2.43;1.43;;;12.70;99.90;;;;;;4985789;28;20224;-79
2022/12/22 03:55:57;;;;;;;2.50;1.50;;;12.70;99.90;;;;;;4986430;28;20432;-79
2022/12/22 03:58:22;;;;;;;4.90;1.60;;;12.60;99.90;;;;;;4979354;28;20291;-79
2022/12/22 04:00:48;;;;;;;2.10;1.70;;;12.60;99.90;;;;;;4974364;28;20247;-79
2022/12/22 04:03:14;;;;;;;2.57;1.50;;;12.60;99.90;;;;;;4986093;28;20279;-81
2022/12/22 04:05:39;;;;;;;2.40;1.47;;;12.50;99.90;;;;;;4981119;28;20185;-78
2022/12/22 04:08:05;;;;;;;2.27;1.67;;;12.40;99.90;;;;;;4985638;28;20189;-78
2022/12/22 04:13:15;;;;;;;5.07;1.93;;;12.30;99.90;;;;;;4986612;28;21428;-78
2022/12/22 04:15:41;;;;;;;2.23;1.60;;;12.30;99.90;;;;;;4989414;28;20515;-78
2022/12/22 04:18:07;;;;;;;4.10;1.73;;;12.30;99.90;;;;;;4990260;28;20225;-77
2022/12/22 04:20:32;;;;;;;4.30;2.40;;;12.30;99.90;;;;;;4984763;28;20189;-78
2022/12/22 04:22:58;;;;;;;5.13;4.63;;;12.20;99.90;;;;;;4985686;28;20196;-79
2022/12/22 04:25:25;;;;;;;2.67;1.50;;;12.10;99.90;;;;;;4981529;28;20669;-76
2022/12/22 04:27:51;;;;;;;3.30;1.90;;;12.10;99.90;;;;;;4989749;28;20475;-81
2022/12/22 04:30:16;;;;;;;3.40;1.97;;;11.90;99.90;;;;;;4990192;28;20544;-76
2022/12/22 04:32:42;;;;;;;3.10;1.87;;;12.00;99.90;;;;;;4991294;28;20235;-78
2022/12/22 04:35:08;;;;;;;5.17;2.33;;;11.90;99.90;;;;;;4983586;28;20209;-76
2022/12/22 04:37:34;;;;;;;3.13;1.57;;;12.00;99.90;;;;;;4990740;28;20209;-76
2022/12/22 04:40:00;;;;;;;2.90;1.80;;;12.00;99.90;;;;;;4985780;28;20432;-75
2022/12/22 04:42:26;;;;;;;5.33;2.20;;;12.00;99.90;;;;;;4990486;28;20259;-77
2022/12/22 04:44:51;;;;;;;3.50;1.63;;;12.20;99.90;;;;;;4986438;28;20448;-77
2022/12/22 04:47:17;;;;;;;3.47;1.73;;;12.20;99.90;;;;;;4991230;28;20185;-76
2022/12/22 04:49:43;;;;;;;2.70;1.80;;;12.20;99.90;;;;;;4981597;28;20652;-77
2022/12/22 04:52:09;;;;;;;4.00;1.57;;;12.20;99.90;;;;;;4983778;28;20464;-77
2022/12/22 04:54:35;;;;;;;3.83;2.13;;;12.20;99.90;;;;;;4985606;28;20363;-77
2022/12/22 04:57:00;;;;;;;7.20;2.17;;;12.20;99.90;;;;;;4986388;28;20182;-77
2022/12/22 04:59:26;;;;;;;6.73;3.30;;;12.30;99.90;;;;;;4982007;28;21296;-77
2022/12/22 05:01:51;;;;;;;2.47;1.80;;;12.30;99.90;;;;;;4985690;28;20205;-78
2022/12/22 05:04:17;;;;;;;6.23;1.80;;;12.20;99.90;;;;;;4980474;28;20299;-77
2022/12/22 05:06:43;;;;;;;3.57;1.53;;;12.30;99.90;;;;;;4985141;28;20190;-79
2022/12/22 05:09:09;;;;;;;3.17;2.07;;;12.30;99.90;;;;;;4984448;28;20197;-79
2022/12/22 05:11:35;;;;;;;5.03;1.80;;;12.20;99.90;;;;;;4979394;28;20224;-76
2022/12/22 05:14:01;;;;;;;4.27;1.80;;;12.30;99.90;;;;;;4980763;28;21122;-77
2022/12/22 05:16:26;;;;;;;3.63;1.87;;;12.30;99.90;;;;;;4981616;28;20181;-78
2022/12/22 05:18:52;;;;;;;3.90;1.60;;;12.30;99.90;;;;;;4982964;28;20303;-80
2022/12/22 05:21:20;;;;;;;4.57;1.90;;;12.40;99.90;;;;;;4985231;28;20185;-77
2022/12/22 05:23:46;;;;;;;2.50;1.50;;;12.40;99.90;;;;;;4988306;28;20205;-79
2022/12/22 05:26:13;;;;;;;2.70;1.60;;;12.40;99.90;;;;;;4988573;28;20444;-79
2022/12/22 05:28:40;;;;;;;3.77;1.40;;;12.40;99.90;;;;;;4989610;28;20452;-78
2022/12/22 05:31:11;;;;;;;2.10;1.53;;;12.40;99.90;;;;;;4980207;28;20456;-77
2022/12/22 05:33:36;;;;;;;5.60;1.33;;;12.50;99.90;;;;;;4981929;28;20682;-80
2022/12/22 05:36:03;;;;;;;10.40;1.90;;;12.50;99.90;;;;;;4981273;28;21005;-78
2022/12/22 05:38:28;;;;;;;4.47;1.50;;;12.50;99.90;;;;;;4984176;28;20205;-78
2022/12/22 05:40:55;;;;;;;5.00;1.50;;;12.50;99.90;;;;;;4986771;28;20455;-76
2022/12/22 05:43:20;;;;;;;4.93;2.10;;;12.60;99.90;;;;;;4984374;28;20194;-77
2022/12/22 05:45:46;;;;;;;7.37;2.27;;;12.50;99.90;;;;;;4982531;28;20459;-78
2022/12/22 05:48:12;;;;;;;3.60;1.73;;;12.60;99.90;;;;;;4987553;28;20189;-79
2022/12/22 05:50:38;;;;;;;5.10;1.77;;;12.60;99.90;;;;;;4984649;28;20185;-79
2022/12/22 05:53:05;;;;;;;4.13;2.20;;;12.60;99.90;;;;;;4986939;28;20464;-79
2022/12/22 05:55:32;;;;;;;8.13;1.80;;;12.70;99.90;;;;;;4987856;28;20428;-77
2022/12/22 05:58:00;;;;;;;7.23;2.53;;;12.70;99.90;;;;;;4988529;28;20552;-78
2022/12/22 06:00:27;;;;;;;8.80;2.40;;;12.60;99.90;;;;;;4981623;28;20514;-78
2022/12/22 06:02:53;;;;;;;3.20;1.70;;;12.60;99.90;;;;;;4984722;28;21081;-78
2022/12/22 06:05:19;;;;;;;2.67;1.50;;;12.60;99.90;;;;;;4983134;28;20482;-78
2022/12/22 06:07:45;;;;;;;3.80;2.30;;;12.60;99.90;;;;;;4981937;28;20181;-80
2022/12/22 06:10:11;;;;;;;5.57;2.07;;;12.70;99.90;;;;;;4982036;28;20760;-77
2022/12/22 06:12:37;;;;;;;5.13;1.77;;;12.70;99.90;;;;;;4981500;28;20193;-79
2022/12/22 06:15:03;;;;;;;10.37;2.70;;;12.70;99.90;;;;;;4986102;28;20424;-78
2022/12/22 06:17:29;;;;;;;4.30;1.80;;;12.70;99.90;;;;;;4984089;28;20192;-77
2022/12/22 06:19:54;;;;;;;6.63;1.90;;;12.70;99.90;;;;;;4992764;28;20460;-76
2022/12/22 06:22:20;;;;;;;7.77;2.27;;;12.70;99.90;;;;;;4985492;28;20292;-76
2022/12/22 06:24:46;;;;;;;7.47;4.93;;;12.70;99.90;;;;;;4989782;28;20217;-78
2022/12/22 06:27:11;;;;;;;9.73;2.27;;;12.80;99.90;;;;;;4986734;28;20324;-78
2022/12/22 06:29:37;;;;;;;3.63;1.63;;;12.80;99.90;;;;;;4983773;28;20186;-79
2022/12/22 06:32:03;;;;;;;10.73;2.57;;;12.90;99.90;;;;;;4987561;28;20216;-79
2022/12/22 06:34:28;;;;;;;7.27;2.33;;;12.80;99.90;;;;;;4984950;28;20193;-79
2022/12/22 06:36:54;;;;;;;5.73;2.03;;;12.80;99.90;;;;;;4981017;28;20331;-79
2022/12/22 06:39:20;;;;;;;6.83;2.10;;;12.80;99.90;;;;;;4986199;28;20205;-75
2022/12/22 06:44:30;;;;;;;9.57;2.77;;;12.90;99.90;;;;;;4981953;28;20490;-80
2022/12/22 06:46:55;;;;;;;7.20;2.47;;;12.90;99.90;;;;;;4981998;28;20444;-78
2022/12/22 06:49:21;;;;;;;7.83;2.43;;;12.90;99.90;;;;;;4987562;28;20287;-78
2022/12/22 06:51:47;;;;;;;4.43;1.83;;;12.90;99.90;;;;;;4992450;28;20201;-78
2022/12/22 06:54:12;;;;;;;9.87;2.10;;;12.90;99.90;;;;;;4986273;28;20192;-80
2022/12/22 06:56:38;;;;;;;9.00;1.90;;;12.90;99.90;;;;;;4985098;28;20185;-79
2022/12/22 06:59:03;;;;;;;4.37;1.83;;;12.90;99.90;;;;;;4985656;28;20272;-79
2022/12/22 07:01:29;;;;;;;8.20;1.73;;;12.90;99.90;;;;;;4978484;28;20185;-78
2022/12/22 07:03:54;;;;;;;7.20;1.67;;;12.90;99.90;;;;;;4986743;28;20259;-79
2022/12/22 07:06:20;;;;;;;6.80;2.33;;;13.00;99.90;;;;;;4977465;28;20550;-78
2022/12/22 07:08:47;;;;;;;11.97;2.93;;;13.00;99.90;;;;;;4983375;28;20185;-77
2022/12/22 07:11:13;;;;;;;7.20;2.30;;;13.10;99.90;;;;;;4986931;28;20221;-79
2022/12/22 07:13:39;;;;;;;5.43;2.00;;;13.10;99.90;;;;;;4984611;28;20456;-80
2022/12/22 07:16:06;;;;;;;10.40;2.77;;;13.10;99.90;;;;;;4988111;28;20493;-78
2022/12/22 07:18:34;;;;;;;7.70;2.00;;;13.10;99.90;;;;;;4982876;28;21124;-77
2022/12/22 07:21:02;;;;;;;5.43;2.00;;;13.10;99.90;;;;;;4988497;28;20436;-75
2022/12/22 07:23:28;;;;;;;3.47;1.50;;;13.10;99.90;;;;;;4988235;28;20543;-76
2022/12/22 07:25:54;;;;;;;8.50;1.80;;;13.20;99.90;;;;;;4985261;28;20455;-77
2022/12/22 07:28:19;;;;;;;6.63;2.50;;;13.20;99.90;;;;;;4984751;28;20445;-77
2022/12/22 07:30:45;;;;;;;8.73;2.63;;;13.20;99.90;;;;;;4974196;28;20196;-76
2022/12/22 07:33:10;;;;;;;5.40;2.10;;;13.30;99.90;;;;;;4983031;28;20614;-76
2022/12/22 07:35:36;;;;;;;10.40;2.80;;;13.20;99.90;;;;;;4983958;28;20199;-75
2022/12/22 07:38:02;;;;;;;11.63;2.50;;;13.20;99.90;;;;;;4975555;28;20217;-76
2022/12/22 07:40:27;;;;;;;8.30;2.40;;;13.20;99.90;;;;;;4983478;28;20173;-75
2022/12/22 07:42:57;;;;;;;11.60;3.20;;;13.20;99.90;;;;;;4980923;28;20227;-77
2022/12/22 07:45:23;;;;;;;9.43;3.20;;;13.20;99.90;;;;;;4985998;28;20252;-79
2022/12/22 07:47:49;;;;;;;5.80;2.30;;;13.20;99.90;;;;;;4988165;28;20437;-80
2022/12/22 07:50:24;;;;;;;7.30;2.70;;;13.20;99.90;;;;;;4989293;28;20474;-77
2022/12/22 07:52:54;;;;;;;9.10;2.50;;;13.30;99.90;;;;;;4987133;28;20460;-80
2022/12/22 07:55:21;;;;;;;8.20;2.83;;;13.30;99.90;;;;;;4983990;28;20440;-80
2022/12/22 07:57:46;;;;;;;8.47;2.57;;;13.30;99.90;;;;;;4992271;28;20622;-81
2022/12/22 08:00:13;;;;;;;12.27;2.70;;;13.30;99.90;;;;;;4986647;28;20596;-78
2022/12/22 08:02:39;;;;;;;10.90;2.70;;;13.30;99.90;;;;;;4986351;28;20204;-82
2022/12/22 08:05:06;;;;;;;8.33;2.30;;;13.40;99.90;;;;;;4986862;28;20444;-81
2022/12/22 08:07:32;;;;;;;6.77;2.13;;;13.30;99.90;;;;;;4979383;28;20425;-79
2022/12/22 08:09:57;;;;;;;5.70;2.53;;;13.40;99.90;;;;;;4983301;28;20921;-78
2022/12/22 08:12:24;;;;;;;8.20;2.73;;;13.40;99.90;;;;;;4987486;28;20205;-77
2022/12/22 08:14:49;;;;;;;7.07;2.03;;;13.40;99.90;;;;;;4991780;28;20448;-78
2022/12/22 08:17:15;;;;;;;6.77;1.93;;;13.30;99.90;;;;;;4993573;28;21237;-76
2022/12/22 08:19:40;;;;;;;9.37;2.80;;;13.30;99.90;;;;;;4991732;28;20209;-80
2022/12/22 08:22:06;;;;;;;8.90;2.83;;;13.30;99.90;;;;;;4987169;28;20954;-77
2022/12/22 08:24:32;;;;;;;9.70;3.37;;;13.30;99.90;;;;;;4988453;28;20228;-78
2022/12/22 08:27:11;;;;;;;10.40;2.63;;;13.30;99.90;;;;;;4990055;28;20177;-78
2022/12/22 08:29:47;;;;;;;10.50;2.63;;;13.20;99.90;;;;;;4986218;28;20275;-78
2022/12/22 08:32:12;;;;;;;6.03;2.07;;;13.30;99.90;;;;;;4987148;28;20515;-78
2022/12/22 08:34:38;;;;;;;11.00;3.17;;;13.30;99.90;;;;;;4986823;28;21258;-77
2022/12/22 08:37:12;;;;;;;6.53;1.90;;;13.20;99.90;;;;;;4985764;28;20815;-78
2022/12/22 08:39:41;;;;;;;7.77;2.67;;;13.20;99.90;;;;;;4987783;28;20466;-76
2022/12/22 08:42:10;;;;;;;5.40;1.90;;;13.10;99.90;;;;;;4990072;28;20452;-74
2022/12/22 08:44:37;;;;;;;10.40;2.20;;;13.10;99.90;;;;;;4984201;28;20542;-76
2022/12/22 08:47:04;;;;;;;7.83;2.23;;;13.10;99.90;;;;;;4988735;28;20712;-77
2022/12/22 08:49:30;;;;;;;9.33;3.10;;;13.10;99.90;;;;;;4988800;28;20444;-76
2022/12/22 08:51:56;;;;;;;7.33;2.70;;;13.10;99.90;;;;;;4991733;28;20471;-78
2022/12/22 08:54:21;;;;;;;10.30;3.27;;;13.00;99.90;;;;;;4993746;28;20181;-76
2022/12/22 08:56:48;;;;;;;10.97;3.10;;;12.90;99.90;;;;;;4992087;28;20189;-77
2022/12/22 08:59:14;;;;;;;12.00;3.10;;;12.80;99.90;;;;;;4987221;28;20212;-75
2022/12/22 09:01:42;;;;;;;6.53;2.30;;;12.70;99.90;;;;;;4989555;28;20436;-76
2022/12/22 09:04:10;;;;;;;8.47;2.40;;;12.70;99.90;;;;;;4982924;28;20181;-76
2022/12/22 09:06:36;;;;;;;8.97;2.43;;;12.60;99.90;;;;;;4985259;28;20604;-77
2022/12/22 09:09:05;;;;;;;9.80;2.60;;;12.60;99.90;;;;;;4984808;28;20955;-74
2022/12/22 09:11:31;;;;;;;10.67;2.60;;;12.60;99.90;;;;;;4978267;28;20189;-79
2022/12/22 09:13:59;;;;;;;10.20;2.40;;;12.60;99.90;;;;;;4990016;28;21614;-80
2022/12/22 09:16:27;;;;;;;6.13;2.30;;;12.60;99.90;;;;;;4988112;28;20490;-80
2022/12/22 09:18:53;;;;;;;8.37;2.80;;;12.60;99.90;;;;;;4973601;28;20495;-81
2022/12/22 09:21:18;;;;;;;8.80;2.30;;;12.50;99.90;;;;;;4993710;28;20459;-80
2022/12/22 09:23:44;;;;;;;5.67;2.70;;;12.50;99.90;;;;;;4976974;28;20852;-80
2022/12/22 09:26:12;;;;;;;10.40;3.27;;;12.40;99.90;;;;;;4987178;28;20955;-78
2022/12/22 09:28:38;;;;;;;5.47;2.33;;;12.20;99.90;;;;;;4983389;28;20719;-79
2022/12/22 09:31:04;;;;;;;10.00;2.80;;;12.10;99.90;;;;;;4977965;28;20428;-77
2022/12/22 09:33:31;;;;;;;11.47;3.03;;;12.00;99.90;;;;;;4978155;28;20974;-77
2022/12/22 09:35:57;;;;;;;7.33;2.40;;;11.90;99.90;;;;;;4980281;28;20482;-79
2022/12/22 09:38:26;;;;;;;9.93;2.57;;;11.90;99.90;;;;;;4990034;28;20472;-79
2022/12/22 09:40:55;;;;;;;8.00;2.63;;;11.90;99.90;;;;;;4988794;28;20444;-79
2022/12/22 09:43:26;;;;;;;15.33;3.17;;;11.80;99.90;;;;;;4987053;28;20466;-76
2022/12/22 09:45:52;;;;;;;7.70;2.60;;;11.80;99.90;;;;;;4979493;28;20433;-77
2022/12/22 09:48:17;;;;;;;10.77;3.40;;;11.80;99.90;;;;;;4975690;28;21821;-76
2022/12/22 09:50:43;;;;;;;7.40;2.40;;;11.80;99.90;;;;;;4986226;28;20712;-77
2022/12/22 09:53:19;;;;;;;6.03;2.20;;;11.80;99.90;;;;;;4980633;28;20205;-77
2022/12/22 09:55:47;;;;;;;8.80;2.40;;;11.90;99.90;;;;;;4983012;28;20185;-76
2022/12/22 09:58:25;;;;;;;8.97;2.10;;;11.90;99.90;;;;;;4988361;28;20456;-78
2022/12/22 10:01:00;;;;;;;5.17;1.77;;;12.00;99.90;;;;;;4984547;28;20440;-78
2022/12/22 10:03:37;;;;;;;6.20;2.40;;;12.00;99.90;;;;;;4979385;28;20466;-77
2022/12/22 10:06:23;;;;;;;7.40;2.43;;;11.90;99.90;;;;;;4981479;28;20441;-79
2022/12/22 10:08:49;;;;;;;11.13;3.03;;;11.90;99.90;;;;;;4979414;28;21325;-78
2022/12/22 10:11:17;;;;;;;10.67;2.63;;;12.00;99.90;;;;;;4983001;28;20441;-77
2022/12/22 10:13:43;;;;;;;6.90;2.37;;;12.00;99.90;;;;;;4987655;28;20202;-78
2022/12/22 10:16:22;;;;;;;7.90;2.50;;;12.00;99.90;;;;;;4987829;28;20510;-79
2022/12/22 10:19:09;;;;;;;7.37;2.03;;;12.10;99.90;;;;;;4977989;28;20468;-78
2022/12/22 10:21:35;;;;;;;6.70;2.03;;;12.10;99.90;;;;;;4979692;28;20432;-79
2022/12/22 10:24:18;;;;;;;7.10;1.97;;;12.10;99.90;;;;;;4978682;28;20450;-78
2022/12/22 10:26:44;;;;;;;8.13;1.90;;;12.10;99.90;;;;;;4981454;28;20320;-79
2022/12/22 10:29:13;;;;;;;3.90;1.50;;;12.10;99.90;;;;;;4986748;28;20464;-76
2022/12/22 10:31:59;;;;;;;6.43;1.70;;;12.10;99.90;;;;;;4983629;28;20442;-79
2022/12/22 10:34:25;;;;;;;9.17;2.07;;;12.10;99.90;;;;;;4984702;28;20555;-78
2022/12/22 10:36:56;;;;;;;7.00;1.80;;;12.20;99.90;;;;;;4984137;28;21090;-78
2022/12/22 10:39:23;;;;;;;6.13;2.20;;;12.10;99.90;;;;;;4983079;28;20711;-78
2022/12/22 10:41:55;;;;;;;3.20;1.93;;;12.10;99.90;;;;;;4984583;28;21345;-79
2022/12/22 10:44:28;;;;;;;6.47;2.43;;;12.00;99.90;;;;;;4990407;28;21116;-78
2022/12/22 10:47:00;;;;;;;11.33;3.40;;;12.00;99.90;;;;;;4990377;28;20444;-78
2022/12/22 10:53:05;;;;;;;8.33;2.10;;;12.10;99.90;;;;;;4990552;28;20486;-79
2022/12/22 10:55:34;;;;;;;6.70;1.80;;;12.10;99.90;;;;;;4993270;28;20473;-78
2022/12/22 10:58:16;;;;;;;4.73;2.27;;;12.10;99.90;;;;;;4989997;28;20962;-78
2022/12/22 11:00:43;;;;;;;8.00;2.63;;;12.10;99.90;;;;;;5002092;28;20439;-78
2022/12/22 11:03:13;;;;;;;8.47;2.27;;;12.00;99.90;;;;;;4975114;28;21003;-78
2022/12/22 11:05:40;;;;;;;12.23;2.77;;;12.00;99.90;;;;;;4987199;28;20440;-77
2022/12/22 11:08:19;;;;;;;4.67;2.00;;;12.00;99.90;;;;;;4981660;28;20444;-74
2022/12/22 11:11:01;;;;;;;8.77;2.20;;;12.00;99.90;;;;;;4975060;28;20455;-74
2022/12/22 11:13:52;;;;;;;6.03;2.67;;;11.90;99.90;;;;;;4986828;28;20840;-76
2022/12/22 11:16:57;;;;;;;12.33;3.93;;;12.00;99.90;;;;;;4979691;28;20818;-77
2022/12/22 11:19:40;;;;;;;10.10;2.07;;;12.00;99.90;;;;;;4955338;28;20882;-77
2022/12/22 11:22:31;;;;;;;9.87;2.37;;;12.00;99.90;;;;;;4981072;28;20551;-76
2022/12/22 11:25:15;;;;;;;6.70;2.90;;;12.00;99.90;;;;;;4987271;28;20459;-76
2022/12/22 11:28:00;;;;;;;8.80;2.30;;;12.00;99.90;;;;;;4983376;28;20446;-76
2022/12/22 11:30:45;;;;;;;7.83;3.30;;;12.00;99.90;;;;;;4947113;28;20861;-77
2022/12/22 11:33:32;;;;;;;7.60;2.40;;;11.90;99.90;;;;;;4984252;28;20447;-78
2022/12/22 11:36:04;;;;;;;7.57;2.00;;;12.00;99.90;;;;;;4985207;28;20444;-77
2022/12/22 11:39:16;;;;;;;5.70;1.77;;;11.90;99.90;;;;;;4982969;28;20490;-77
2022/12/22 11:41:51;;;;;;;5.50;2.47;;;11.80;99.90;;;;;;4981008;28;20483;-76
2022/12/22 11:44:38;;;;;;;7.93;2.27;;;11.90;99.90;;;;;;4986182;28;20424;-76
2022/12/22 11:47:31;;;;;;;9.30;3.53;;;11.80;99.90;;;;;;4982830;28;20448;-76
2022/12/22 11:50:20;;;;;;;9.33;2.57;;;11.90;99.90;;;;;;4989831;28;21293;-77
2022/12/22 11:53:15;;;;;;;7.77;2.90;;;11.90;99.90;;;;;;4997956;28;20534;-78
2022/12/22 11:56:02;;;;;;;11.33;3.30;;;11.90;99.90;;;;;;4982116;28;20969;-78
2022/12/22 11:58:44;;;;;;;4.80;2.70;;;11.80;99.90;;;;;;4990489;28;20518;-78
2022/12/22 12:01:34;;;;;;;9.40;2.83;;;11.90;99.90;;;;;;4988883;28;20436;-78
2022/12/22 12:04:18;;;;;;;4.70;2.40;;;12.00;99.90;;;;;;4989979;28;20440;-77
2022/12/22 12:06:47;;;;;;;4.73;2.53;;;11.90;99.90;;;;;;4990574;28;20439;-77
2022/12/22 12:09:49;;;;;;;5.83;2.60;;;12.00;99.90;;;;;;4993784;28;20494;-78
2022/12/22 12:12:15;;;;;;;12.03;2.80;;;11.90;99.90;;;;;;4992181;28;21050;-77
2022/12/22 12:14:51;;;;;;;7.70;2.40;;;11.90;99.90;;;;;;4988578;28;20432;-78
2022/12/22 12:17:34;;;;;;;5.07;2.20;;;12.00;99.90;;;;;;4990879;28;20181;-78
2022/12/22 12:20:46;;;;;;;12.40;2.57;;;11.90;99.90;;;;;;4992917;28;20478;-78
2022/12/22 12:23:43;;;;;;;4.60;2.40;;;11.90;99.90;;;;;;4951211;28;20462;-77
2022/12/22 12:26:33;;;;;;;6.53;2.23;;;11.90;99.90;;;;;;4976427;28;20502;-77
2022/12/22 12:29:17;;;;;;;8.63;2.80;;;11.90;99.90;;;;;;4980947;28;20445;-78
2022/12/22 12:31:54;;;;;;;9.20;2.73;;;11.90;99.90;;;;;;4979807;28;20442;-77
2022/12/22 12:34:21;;;;;;;10.93;2.90;;;12.00;99.90;;;;;;4978673;28;20920;-78
2022/12/22 12:36:58;;;;;;;10.70;2.90;;;12.00;99.90;;;;;;4979435;28;20451;-78
2022/12/22 12:39:45;;;;;;;10.93;2.87;;;12.00;99.90;;;;;;4983565;28;20590;-77
2022/12/22 12:42:30;;;;;;;9.40;2.80;;;12.10;99.90;;;;;;4981577;28;20630;-75
2022/12/22 12:44:55;;;;;;;9.83;2.80;;;12.10;99.90;;;;;;4979026;28;20432;-78
2022/12/22 12:47:27;;;;;;;10.30;2.77;;;11.90;99.90;;;;;;4980075;28;20483;-77
2022/12/22 12:49:53;;;;;;;6.80;3.00;;;11.90;99.90;;;;;;4980327;28;20185;-77
2022/12/22 12:52:38;;;;;;;5.40;2.30;;;12.10;99.90;;;;;;4988554;28;20471;-78
2022/12/22 12:55:22;;;;;;;12.80;2.97;;;12.20;99.90;;;;;;4980599;28;20189;-77
2022/12/22 12:57:48;;;;;;;8.97;2.60;;;12.10;99.90;;;;;;4979575;28;20448;-78
2022/12/22 13:00:51;;;;;;;14.27;3.40;;;12.00;99.90;;;;;;4987264;28;20581;-77
2022/12/22 13:03:28;;;;;;;9.10;2.97;;;12.00;99.90;;;;;;4952327;28;21036;-78
2022/12/22 13:06:02;;;;;;;10.57;3.57;;;12.00;99.90;;;;;;4976998;28;20447;-77
2022/12/22 13:08:32;;;;;;;12.07;3.43;;;12.00;99.90;;;;;;4984474;28;21035;-78
2022/12/22 13:10:57;;;;;;;10.70;2.80;;;12.00;99.90;;;;;;4979632;28;20548;-77
2022/12/22 13:13:23;;;;;;;16.50;3.43;;;11.90;99.90;;;;;;4986461;28;20544;-78
2022/12/22 13:16:08;;;;;;;11.80;3.50;;;11.90;99.90;;;;;;4977531;28;20771;-77
2022/12/22 13:18:34;;;;;;;8.97;2.70;;;11.80;99.90;;;;;;4985115;28;20460;-77
2022/12/22 13:21:25;;;;;;;10.07;2.80;;;11.70;99.90;;;;;;4984251;28;21219;-78
2022/12/22 13:23:59;;;;;;;13.33;3.10;;;11.80;99.90;;;;;;4980881;28;20232;-75
2022/12/22 13:26:30;;;;;;;10.73;2.43;;;11.80;99.90;;;;;;4987953;28;20549;-78
2022/12/22 13:28:58;;;;;;;11.80;3.20;;;11.80;99.90;;;;;;4987994;28;20969;-79
2022/12/22 13:31:35;;;;;;;9.33;3.30;;;11.80;99.90;;;;;;4988611;28;20447;-77
2022/12/22 13:34:36;;;;;;;9.87;3.30;;;11.90;99.90;;;;;;4981129;28;20471;-78
2022/12/22 13:37:18;;;;;;;14.00;3.33;;;11.90;99.90;;;;;;4984173;28;20478;-77
2022/12/22 13:40:06;;;;;;;18.63;3.43;;;11.90;99.90;;;;;;4988112;28;20464;-77
2022/12/22 13:43:03;;;;;;;12.77;3.57;;;12.00;99.90;;;;;;4989422;28;20460;-77
2022/12/22 13:45:43;;;;;;;16.43;3.90;;;12.00;99.90;;;;;;4960538;28;20480;-77
2022/12/22 13:48:15;;;;;;;12.93;3.77;;;12.00;99.90;;;;;;4978238;28;20499;-75
2022/12/22 13:51:06;;;;;;;14.77;4.27;;;12.10;99.90;;;;;;4983086;28;20439;-76
2022/12/22 13:53:39;;;;;;;18.60;3.67;;;12.20;99.90;;;;;;4991428;28;20577;-75
2022/12/22 13:56:18;;;;;;;13.57;3.57;;;12.30;99.90;;;;;;4985573;28;20444;-75
2022/12/22 13:58:49;;;;;;;28.03;4.60;;;12.40;99.90;;;;;;4983057;28;21006;-75
2022/12/22 14:01:18;;;;;;;15.80;5.23;;;12.40;99.90;;;;;;4985577;28;20466;-75
2022/12/22 14:03:57;;;;;;;15.53;4.00;;;12.50;99.90;;;;;;4988906;28;21310;-77
2022/12/22 14:06:35;;;;;;;21.53;4.40;;;12.50;99.90;;;;;;4987456;28;20550;-75
2022/12/22 14:09:15;;;;;;;12.90;3.50;;;12.60;99.90;;;;;;4985133;28;20546;-75
2022/12/22 14:11:45;;;;;;;14.70;3.40;;;12.60;99.90;;;;;;4990012;28;20528;-76
2022/12/22 14:14:17;;;;;;;17.63;3.93;;;12.60;99.90;;;;;;4990775;28;21898;-75
2022/12/22 14:16:49;;;;;;;17.67;4.13;;;12.70;99.90;;;;;;4987881;28;20444;-73
2022/12/22 14:19:17;;;;;;;12.33;4.10;;;12.70;99.90;;;;;;4986542;28;20460;-75
2022/12/22 14:21:46;;;;;;;20.10;3.87;;;12.70;99.90;;;;;;4981519;28;21049;-74
2022/12/22 14:24:18;;;;;;;12.07;3.53;;;12.60;99.90;;;;;;4990139;28;21191;-76
2022/12/22 14:26:44;;;;;;;11.80;3.33;;;12.60;99.90;;;;;;4987636;28;20468;-77
2022/12/22 14:29:16;;;;;;;17.80;4.47;;;12.70;99.90;;;;;;4988671;28;21090;-77
2022/12/22 14:32:00;;;;;;;16.27;3.37;;;12.70;99.90;;;;;;4988272;28;20480;-77
2022/12/22 14:34:31;;;;;;;9.13;3.13;;;12.60;99.90;;;;;;4990980;28;20439;-76
2022/12/22 14:37:00;;;;;;;11.70;3.60;;;12.60;99.90;;;;;;4987537;28;21703;-76
2022/12/22 14:39:30;;;;;;;13.13;3.87;;;12.60;99.90;;;;;;4986440;28;20466;-76
2022/12/22 14:42:11;;;;;;;11.30;3.40;;;12.70;99.90;;;;;;4986777;28;20451;-73
2022/12/22 14:44:47;;;;;;;11.17;3.13;;;12.70;99.90;;;;;;4978391;28;20475;-81
2022/12/22 14:47:17;;;;;;;20.80;4.57;;;12.60;99.90;;;;;;4985869;28;20427;-81
2022/12/22 14:49:49;;;;;;;15.43;4.70;;;12.60;99.90;;;;;;4977143;28;20525;-81
2022/12/22 14:52:34;;;;;;;10.30;2.73;;;12.60;99.90;;;;;;4982246;28;20464;-81
2022/12/22 14:55:03;;;;;;;11.60;3.90;;;12.70;99.90;;;;;;4987823;28;20432;-78
2022/12/22 14:57:35;;;;;;;11.10;3.87;;;12.70;99.90;;;;;;4985998;28;20435;-79
2022/12/22 15:00:20;;;;;;;11.33;3.27;;;12.80;99.90;;;;;;4990382;28;20465;-77
2022/12/22 15:02:52;;;;;;;17.53;5.50;;;12.80;99.90;;;;;;4994126;28;20983;-80
2022/12/22 15:05:32;;;;;;;14.10;3.97;;;12.80;99.90;;;;;;4988838;28;20445;-78
2022/12/22 15:07:57;;;;;;;24.37;4.97;;;12.90;99.90;;;;;;4990630;28;20465;-81
2022/12/22 15:10:27;;;;;;;15.67;4.10;;;12.90;99.90;;;;;;4991203;28;20424;-78
2022/12/22 15:12:57;;;;;;;16.13;5.00;;;13.00;99.90;;;;;;4990331;28;20205;-79
2022/12/22 15:15:23;;;;;;;16.40;5.17;;;13.00;99.90;;;;;;4995160;28;20425;-79
2022/12/22 15:17:51;;;;;;;17.50;3.53;;;13.00;99.90;;;;;;4998370;28;20423;-78
2022/12/22 15:20:22;;;;;;;12.23;3.90;;;12.90;99.90;;;;;;4988116;28;20444;-78
2022/12/22 15:22:48;;;;;;;9.17;3.53;;;13.00;99.90;;;;;;4992270;28;20882;-80
2022/12/22 15:25:16;;;;;;;11.90;4.10;;;13.00;99.90;;;;;;4994525;28;20432;-79
2022/12/22 15:27:42;;;;;;;14.30;4.40;;;12.90;99.90;;;;;;4993523;28;20893;-79
2022/12/22 15:30:10;;;;;;;14.53;4.10;;;12.90;99.90;;;;;;4991357;28;21430;-78
2022/12/22 15:32:36;;;;;;;10.27;3.53;;;12.90;99.90;;;;;;4994461;28;20459;-77
2022/12/22 15:35:02;;;;;;;12.07;4.77;;;12.90;99.90;;;;;;4994187;28;20970;-80
2022/12/22 15:37:28;;;;;;;17.07;4.40;;;12.90;99.90;;;;;;4991928;28;20507;-78
2022/12/22 15:39:54;;;;;;;18.83;3.40;;;12.90;99.90;;;;;;4992226;28;20500;-78
2022/12/22 15:42:20;;;;;;;10.93;3.50;;;12.90;99.90;;;;;;4990069;28;20507;-76
2022/12/22 15:44:45;;;;;;;11.90;2.70;;;12.80;99.90;;;;;;4990113;28;20923;-79
2022/12/22 15:47:11;;;;;;;12.23;2.97;;;12.80;99.90;;;;;;4992489;28;20616;-79
2022/12/22 15:49:37;;;;;;;11.60;3.07;;;12.80;99.90;;;;;;4989114;28;21340;-78
2022/12/22 15:52:05;;;;;;;19.23;3.80;;;12.70;99.90;;;;;;4989744;28;20911;-79
2022/12/22 15:54:32;;;;;;;7.03;2.90;;;12.70;99.90;;;;;;4994932;28;20432;-79
2022/12/22 15:56:58;;;;;;;11.80;3.27;;;12.70;99.90;;;;;;4988313;28;20435;-79
2022/12/22 15:59:26;;;;;;;18.83;5.67;;;12.80;99.90;;;;;;4991020;28;20457;-77
2022/12/22 16:01:56;;;;;;;10.57;2.70;;;12.70;99.90;;;;;;4995418;28;20431;-79
2022/12/22 16:04:22;;;;;;;16.30;3.47;;;12.80;99.90;;;;;;4991019;28;20494;-81
2022/12/22 16:06:49;;;;;;;16.70;4.80;;;12.80;99.90;;;;;;4991386;28;20531;-77
2022/12/22 16:09:22;;;;;;;12.17;4.10;;;12.80;99.90;;;;;;4992642;28;20477;-77
2022/12/22 16:11:48;;;;;;;10.70;3.77;;;12.60;99.90;;;;;;4988941;28;20960;-81
2022/12/22 16:14:17;;;;;;;15.30;5.07;;;12.50;99.90;;;;;;4994661;28;20451;-81
2022/12/22 16:16:43;;;;;;;13.50;3.50;;;12.50;99.90;;;;;;4989226;28;20424;-81
2022/12/22 16:19:14;;;;;;;12.03;3.37;;;12.50;99.90;;;;;;4994692;28;20452;-79
2022/12/22 16:21:40;;;;;;;8.93;3.10;;;12.50;99.90;;;;;;4995619;28;20284;-80
2022/12/22 16:24:06;;;;;;;12.83;3.70;;;12.50;99.90;;;;;;4991129;28;20433;-79
2022/12/22 16:26:32;;;;;;;11.10;4.50;;;12.40;99.90;;;;;;4995547;28;20447;-78
2022/12/22 16:28:58;;;;;;;20.40;4.87;;;12.50;99.90;;;;;;4997813;28;20423;-79
2022/12/22 16:31:24;;;;;;;12.00;3.13;;;12.40;99.90;;;;;;4991639;28;20193;-81
2022/12/22 16:33:50;;;;;;;15.33;3.33;;;12.50;99.90;;;;;;4993155;28;20479;-78
2022/12/22 16:36:16;;;;;;;13.87;3.90;;;12.50;99.90;;;;;;4992760;28;20490;-77
2022/12/22 16:38:44;;;;;;;13.70;4.20;;;12.50;99.90;;;;;;4988139;28;20468;-81
2022/12/22 16:41:23;;;;;;;15.87;4.10;;;12.50;99.90;;;;;;4992901;28;20427;-79